sensor_id;sensor_type;location;lat;lon;timestamp;temperature;humidity
45785;DHT22;31489;51.404;5.474;2023-10-31T00:00:10;14.30;84.50
45785;DHT22;31489;51.404;5.474;2023-10-31T00:02:36;14.30;84.50
45785;DHT22;31489;51.404;5.474;2023-10-31T00:05:03;14.30;84.50
45785;DHT22;31489;51.404;5.474;2023-10-31T00:07:28;14.40;84.50
45785;DHT22;31489;51.404;5.474;2023-10-31T00:09:55;14.40;84.40
45785;DHT22;31489;51.404;5.474;2023-10-31T00:12:20;14.40;85.00
45785;DHT22;31489;51.404;5.474;2023-10-31T00:14:46;14.30;84.40
45785;DHT22;31489;51.404;5.474;2023-10-31T00:17:12;14.30;84.80
45785;DHT22;31489;51.404;5.474;2023-10-31T00:19:37;14.40;84.80
45785;DHT22;31489;51.404;5.474;2023-10-31T00:22:03;14.40;84.30
45785;DHT22;31489;51.404;5.474;2023-10-31T00:24:29;14.40;84.40
45785;DHT22;31489;51.404;5.474;2023-10-31T00:26:57;14.40;84.20
45785;DHT22;31489;51.404;5.474;2023-10-31T00:29:23;14.40;84.10
45785;DHT22;31489;51.404;5.474;2023-10-31T00:31:49;14.40;84.20
45785;DHT22;31489;51.404;5.474;2023-10-31T00:34:15;14.40;84.20
45785;DHT22;31489;51.404;5.474;2023-10-31T00:36:59;14.40;84.20
45785;DHT22;31489;51.404;5.474;2023-10-31T00:39:24;14.40;84.20
45785;DHT22;31489;51.404;5.474;2023-10-31T00:41:50;14.50;84.20
45785;DHT22;31489;51.404;5.474;2023-10-31T00:44:16;14.50;84.30
45785;DHT22;31489;51.404;5.474;2023-10-31T00:46:41;14.50;84.10
45785;DHT22;31489;51.404;5.474;2023-10-31T00:49:07;14.50;83.90
45785;DHT22;31489;51.404;5.474;2023-10-31T00:51:33;14.50;83.80
45785;DHT22;31489;51.404;5.474;2023-10-31T00:53:59;14.50;83.80
45785;DHT22;31489;51.404;5.474;2023-10-31T00:56:24;14.50;83.80
45785;DHT22;31489;51.404;5.474;2023-10-31T00:58:50;14.60;83.80
45785;DHT22;31489;51.404;5.474;2023-10-31T01:01:16;14.60;83.80
45785;DHT22;31489;51.404;5.474;2023-10-31T01:03:42;14.60;83.80
45785;DHT22;31489;51.404;5.474;2023-10-31T01:06:08;14.60;83.70
45785;DHT22;31489;51.404;5.474;2023-10-31T01:08:34;14.60;83.70
45785;DHT22;31489;51.404;5.474;2023-10-31T01:11:00;14.60;83.80
45785;DHT22;31489;51.404;5.474;2023-10-31T01:13:26;14.60;83.90
45785;DHT22;31489;51.404;5.474;2023-10-31T01:15:51;14.60;83.90
45785;DHT22;31489;51.404;5.474;2023-10-31T01:18:17;14.60;84.00
45785;DHT22;31489;51.404;5.474;2023-10-31T01:20:43;14.60;84.00
45785;DHT22;31489;51.404;5.474;2023-10-31T01:23:09;14.60;84.00
45785;DHT22;31489;51.404;5.474;2023-10-31T01:25:34;14.50;84.00
45785;DHT22;31489;51.404;5.474;2023-10-31T01:28:00;14.50;84.10
45785;DHT22;31489;51.404;5.474;2023-10-31T01:30:26;14.50;84.10
45785;DHT22;31489;51.404;5.474;2023-10-31T01:32:51;14.50;84.20
45785;DHT22;31489;51.404;5.474;2023-10-31T01:35:17;14.50;84.30
45785;DHT22;31489;51.404;5.474;2023-10-31T01:37:43;14.50;84.40
45785;DHT22;31489;51.404;5.474;2023-10-31T01:40:12;14.50;84.40
45785;DHT22;31489;51.404;5.474;2023-10-31T01:42:38;14.50;84.50
45785;DHT22;31489;51.404;5.474;2023-10-31T01:45:04;14.50;84.50
45785;DHT22;31489;51.404;5.474;2023-10-31T01:47:29;14.50;84.60
45785;DHT22;31489;51.404;5.474;2023-10-31T01:49:55;14.50;84.60
45785;DHT22;31489;51.404;5.474;2023-10-31T01:52:21;14.50;84.50
45785;DHT22;31489;51.404;5.474;2023-10-31T01:54:47;14.50;84.50
45785;DHT22;31489;51.404;5.474;2023-10-31T01:57:13;14.50;84.70
45785;DHT22;31489;51.404;5.474;2023-10-31T01:59:39;14.50;84.70
45785;DHT22;31489;51.404;5.474;2023-10-31T02:02:05;14.50;84.70
45785;DHT22;31489;51.404;5.474;2023-10-31T02:04:31;14.50;84.70
45785;DHT22;31489;51.404;5.474;2023-10-31T02:06:57;14.40;84.80
45785;DHT22;31489;51.404;5.474;2023-10-31T02:09:22;14.50;85.00
45785;DHT22;31489;51.404;5.474;2023-10-31T02:11:52;14.50;85.00
45785;DHT22;31489;51.404;5.474;2023-10-31T02:14:18;14.50;85.00
45785;DHT22;31489;51.404;5.474;2023-10-31T02:16:44;14.50;85.00
45785;DHT22;31489;51.404;5.474;2023-10-31T02:19:10;14.50;84.90
45785;DHT22;31489;51.404;5.474;2023-10-31T02:21:39;14.50;85.00
45785;DHT22;31489;51.404;5.474;2023-10-31T02:24:05;14.50;85.10
45785;DHT22;31489;51.404;5.474;2023-10-31T02:26:33;14.50;85.10
45785;DHT22;31489;51.404;5.474;2023-10-31T02:28:59;14.60;85.00
45785;DHT22;31489;51.404;5.474;2023-10-31T02:31:25;14.50;84.90
45785;DHT22;31489;51.404;5.474;2023-10-31T02:33:51;14.60;84.90
45785;DHT22;31489;51.404;5.474;2023-10-31T02:36:17;14.50;84.90
45785;DHT22;31489;51.404;5.474;2023-10-31T02:38:43;14.60;84.90
45785;DHT22;31489;51.404;5.474;2023-10-31T02:41:08;14.50;84.80
45785;DHT22;31489;51.404;5.474;2023-10-31T02:43:34;14.50;84.80
45785;DHT22;31489;51.404;5.474;2023-10-31T02:46:00;14.60;85.00
45785;DHT22;31489;51.404;5.474;2023-10-31T02:48:26;14.50;85.00
45785;DHT22;31489;51.404;5.474;2023-10-31T02:50:52;14.50;85.10
45785;DHT22;31489;51.404;5.474;2023-10-31T02:53:18;14.50;85.10
45785;DHT22;31489;51.404;5.474;2023-10-31T02:55:44;14.50;85.10
45785;DHT22;31489;51.404;5.474;2023-10-31T02:58:10;14.50;85.10
45785;DHT22;31489;51.404;5.474;2023-10-31T03:00:36;14.50;85.00
45785;DHT22;31489;51.404;5.474;2023-10-31T03:03:02;14.50;85.10
45785;DHT22;31489;51.404;5.474;2023-10-31T03:05:28;14.60;85.10
45785;DHT22;31489;51.404;5.474;2023-10-31T03:07:54;14.60;85.10
45785;DHT22;31489;51.404;5.474;2023-10-31T03:10:20;14.50;84.90
45785;DHT22;31489;51.404;5.474;2023-10-31T03:12:46;14.60;85.00
45785;DHT22;31489;51.404;5.474;2023-10-31T03:15:12;14.50;84.90
45785;DHT22;31489;51.404;5.474;2023-10-31T03:17:38;14.50;84.90
45785;DHT22;31489;51.404;5.474;2023-10-31T03:20:05;14.60;85.00
45785;DHT22;31489;51.404;5.474;2023-10-31T03:22:30;14.50;85.00
45785;DHT22;31489;51.404;5.474;2023-10-31T03:24:56;14.60;85.00
45785;DHT22;31489;51.404;5.474;2023-10-31T03:27:22;14.50;84.90
45785;DHT22;31489;51.404;5.474;2023-10-31T03:29:48;14.60;84.90
45785;DHT22;31489;51.404;5.474;2023-10-31T03:32:14;14.60;84.90
45785;DHT22;31489;51.404;5.474;2023-10-31T03:34:41;14.60;84.90
45785;DHT22;31489;51.404;5.474;2023-10-31T03:37:06;14.60;84.80
45785;DHT22;31489;51.404;5.474;2023-10-31T03:39:32;14.60;84.90
45785;DHT22;31489;51.404;5.474;2023-10-31T03:41:58;14.60;85.00
45785;DHT22;31489;51.404;5.474;2023-10-31T03:44:24;14.60;84.90
45785;DHT22;31489;51.404;5.474;2023-10-31T03:46:49;14.60;84.90
45785;DHT22;31489;51.404;5.474;2023-10-31T03:49:15;14.60;85.00
45785;DHT22;31489;51.404;5.474;2023-10-31T03:51:41;14.60;84.90
45785;DHT22;31489;51.404;5.474;2023-10-31T03:54:07;14.60;84.80
45785;DHT22;31489;51.404;5.474;2023-10-31T03:56:40;14.60;84.80
45785;DHT22;31489;51.404;5.474;2023-10-31T03:59:06;14.60;84.90
45785;DHT22;31489;51.404;5.474;2023-10-31T04:01:31;14.60;84.90
45785;DHT22;31489;51.404;5.474;2023-10-31T04:03:57;14.60;84.90
45785;DHT22;31489;51.404;5.474;2023-10-31T04:06:23;14.60;84.90
45785;DHT22;31489;51.404;5.474;2023-10-31T04:08:48;14.60;84.80
45785;DHT22;31489;51.404;5.474;2023-10-31T04:11:14;14.50;84.90
45785;DHT22;31489;51.404;5.474;2023-10-31T04:13:40;14.50;85.00
45785;DHT22;31489;51.404;5.474;2023-10-31T04:16:06;14.60;85.20
45785;DHT22;31489;51.404;5.474;2023-10-31T04:18:32;14.50;85.10
45785;DHT22;31489;51.404;5.474;2023-10-31T04:20:57;14.60;85.20
45785;DHT22;31489;51.404;5.474;2023-10-31T04:23:23;14.50;84.90
45785;DHT22;31489;51.404;5.474;2023-10-31T04:25:49;14.60;85.50
45785;DHT22;31489;51.404;5.474;2023-10-31T04:28:15;14.60;84.80
45785;DHT22;31489;51.404;5.474;2023-10-31T04:30:40;14.60;84.80
45785;DHT22;31489;51.404;5.474;2023-10-31T04:33:06;14.60;84.90
45785;DHT22;31489;51.404;5.474;2023-10-31T04:35:32;14.60;84.80
45785;DHT22;31489;51.404;5.474;2023-10-31T04:37:57;14.60;84.70
45785;DHT22;31489;51.404;5.474;2023-10-31T04:40:23;14.60;84.70
45785;DHT22;31489;51.404;5.474;2023-10-31T04:42:49;14.60;84.70
45785;DHT22;31489;51.404;5.474;2023-10-31T04:45:14;14.60;84.70
45785;DHT22;31489;51.404;5.474;2023-10-31T04:47:41;14.60;84.70
45785;DHT22;31489;51.404;5.474;2023-10-31T04:50:07;14.60;84.60
45785;DHT22;31489;51.404;5.474;2023-10-31T04:52:33;14.70;84.50
45785;DHT22;31489;51.404;5.474;2023-10-31T04:54:59;14.60;84.40
45785;DHT22;31489;51.404;5.474;2023-10-31T04:57:24;14.60;84.40
45785;DHT22;31489;51.404;5.474;2023-10-31T04:59:50;14.60;84.60
45785;DHT22;31489;51.404;5.474;2023-10-31T05:02:16;14.60;84.70
45785;DHT22;31489;51.404;5.474;2023-10-31T05:04:43;14.60;84.60
45785;DHT22;31489;51.404;5.474;2023-10-31T05:07:08;14.60;84.60
45785;DHT22;31489;51.404;5.474;2023-10-31T05:09:34;14.60;84.60
45785;DHT22;31489;51.404;5.474;2023-10-31T05:12:00;14.60;84.70
45785;DHT22;31489;51.404;5.474;2023-10-31T05:14:26;14.60;84.60
45785;DHT22;31489;51.404;5.474;2023-10-31T05:16:51;14.60;84.60
45785;DHT22;31489;51.404;5.474;2023-10-31T05:19:17;14.60;84.50
45785;DHT22;31489;51.404;5.474;2023-10-31T05:21:43;14.60;84.40
45785;DHT22;31489;51.404;5.474;2023-10-31T05:24:09;14.60;84.50
45785;DHT22;31489;51.404;5.474;2023-10-31T05:26:34;14.50;84.50
45785;DHT22;31489;51.404;5.474;2023-10-31T05:29:00;14.50;84.50
45785;DHT22;31489;51.404;5.474;2023-10-31T05:31:26;14.50;84.60
45785;DHT22;31489;51.404;5.474;2023-10-31T05:33:52;14.50;84.60
45785;DHT22;31489;51.404;5.474;2023-10-31T05:36:24;14.50;84.60
45785;DHT22;31489;51.404;5.474;2023-10-31T05:38:50;14.40;84.70
45785;DHT22;31489;51.404;5.474;2023-10-31T05:41:16;14.30;84.60
45785;DHT22;31489;51.404;5.474;2023-10-31T05:43:41;14.30;84.60
45785;DHT22;31489;51.404;5.474;2023-10-31T05:46:07;14.30;84.70
45785;DHT22;31489;51.404;5.474;2023-10-31T05:48:40;14.30;84.80
45785;DHT22;31489;51.404;5.474;2023-10-31T05:51:16;14.30;85.00
45785;DHT22;31489;51.404;5.474;2023-10-31T05:53:43;14.20;84.90
45785;DHT22;31489;51.404;5.474;2023-10-31T05:56:09;14.30;85.10
45785;DHT22;31489;51.404;5.474;2023-10-31T05:58:36;14.30;84.80
45785;DHT22;31489;51.404;5.474;2023-10-31T06:01:02;14.20;84.90
45785;DHT22;31489;51.404;5.474;2023-10-31T06:03:27;14.20;84.90
45785;DHT22;31489;51.404;5.474;2023-10-31T06:05:53;14.20;85.50
45785;DHT22;31489;51.404;5.474;2023-10-31T06:08:19;14.20;85.20
45785;DHT22;31489;51.404;5.474;2023-10-31T06:10:45;14.20;85.00
45785;DHT22;31489;51.404;5.474;2023-10-31T06:13:11;14.10;84.90
45785;DHT22;31489;51.404;5.474;2023-10-31T06:15:36;14.10;84.90
45785;DHT22;31489;51.404;5.474;2023-10-31T06:18:02;14.10;84.80
45785;DHT22;31489;51.404;5.474;2023-10-31T06:20:28;14.10;84.90
45785;DHT22;31489;51.404;5.474;2023-10-31T06:22:54;14.10;84.90
45785;DHT22;31489;51.404;5.474;2023-10-31T06:25:19;14.10;85.10
45785;DHT22;31489;51.404;5.474;2023-10-31T06:27:45;14.10;85.10
45785;DHT22;31489;51.404;5.474;2023-10-31T06:30:11;14.10;85.10
45785;DHT22;31489;51.404;5.474;2023-10-31T06:32:37;14.10;85.00
45785;DHT22;31489;51.404;5.474;2023-10-31T06:35:05;14.00;85.00
45785;DHT22;31489;51.404;5.474;2023-10-31T06:37:31;14.00;85.10
45785;DHT22;31489;51.404;5.474;2023-10-31T06:39:57;14.00;85.00
45785;DHT22;31489;51.404;5.474;2023-10-31T06:42:22;14.00;85.00
45785;DHT22;31489;51.404;5.474;2023-10-31T06:44:48;14.00;84.90
45785;DHT22;31489;51.404;5.474;2023-10-31T06:47:14;14.00;84.80
45785;DHT22;31489;51.404;5.474;2023-10-31T06:49:40;14.00;84.70
45785;DHT22;31489;51.404;5.474;2023-10-31T06:52:05;14.00;84.70
45785;DHT22;31489;51.404;5.474;2023-10-31T06:54:34;14.00;84.70
45785;DHT22;31489;51.404;5.474;2023-10-31T06:57:00;14.00;84.80
45785;DHT22;31489;51.404;5.474;2023-10-31T06:59:27;14.00;85.00
45785;DHT22;31489;51.404;5.474;2023-10-31T07:01:54;14.00;85.10
45785;DHT22;31489;51.404;5.474;2023-10-31T07:04:20;14.00;85.10
45785;DHT22;31489;51.404;5.474;2023-10-31T07:06:46;14.00;85.10
45785;DHT22;31489;51.404;5.474;2023-10-31T07:09:12;14.00;85.10
45785;DHT22;31489;51.404;5.474;2023-10-31T07:11:37;14.00;85.00
45785;DHT22;31489;51.404;5.474;2023-10-31T07:14:03;14.00;85.10
45785;DHT22;31489;51.404;5.474;2023-10-31T07:16:31;14.00;85.10
45785;DHT22;31489;51.404;5.474;2023-10-31T07:18:57;14.00;85.00
45785;DHT22;31489;51.404;5.474;2023-10-31T07:21:24;14.00;84.90
45785;DHT22;31489;51.404;5.474;2023-10-31T07:23:49;14.10;84.90
45785;DHT22;31489;51.404;5.474;2023-10-31T07:26:15;14.00;84.80
45785;DHT22;31489;51.404;5.474;2023-10-31T07:28:41;14.10;85.10
45785;DHT22;31489;51.404;5.474;2023-10-31T07:31:07;14.00;85.00
45785;DHT22;31489;51.404;5.474;2023-10-31T07:33:32;14.10;85.10
45785;DHT22;31489;51.404;5.474;2023-10-31T07:35:58;14.10;85.20
45785;DHT22;31489;51.404;5.474;2023-10-31T07:38:24;14.10;85.20
45785;DHT22;31489;51.404;5.474;2023-10-31T07:40:49;14.10;85.10
45785;DHT22;31489;51.404;5.474;2023-10-31T07:43:15;14.10;85.10
45785;DHT22;31489;51.404;5.474;2023-10-31T07:45:42;14.10;85.20
45785;DHT22;31489;51.404;5.474;2023-10-31T07:48:08;14.10;85.40
45785;DHT22;31489;51.404;5.474;2023-10-31T07:50:34;14.10;85.30
45785;DHT22;31489;51.404;5.474;2023-10-31T07:53:02;14.10;85.20
45785;DHT22;31489;51.404;5.474;2023-10-31T07:55:28;14.10;85.30
45785;DHT22;31489;51.404;5.474;2023-10-31T07:57:54;14.20;85.20
45785;DHT22;31489;51.404;5.474;2023-10-31T08:00:19;14.20;85.20
45785;DHT22;31489;51.404;5.474;2023-10-31T08:02:46;14.20;85.20
45785;DHT22;31489;51.404;5.474;2023-10-31T08:05:12;14.20;85.20
45785;DHT22;31489;51.404;5.474;2023-10-31T08:07:37;14.20;85.00
45785;DHT22;31489;51.404;5.474;2023-10-31T08:10:03;14.20;85.00
45785;DHT22;31489;51.404;5.474;2023-10-31T08:12:29;14.20;84.90
45785;DHT22;31489;51.404;5.474;2023-10-31T08:14:55;14.20;84.90
45785;DHT22;31489;51.404;5.474;2023-10-31T08:17:21;14.20;84.90
45785;DHT22;31489;51.404;5.474;2023-10-31T08:19:46;14.10;84.90
45785;DHT22;31489;51.404;5.474;2023-10-31T08:22:13;14.10;85.00
45785;DHT22;31489;51.404;5.474;2023-10-31T08:24:39;14.10;85.10
45785;DHT22;31489;51.404;5.474;2023-10-31T08:27:05;14.20;85.20
45785;DHT22;31489;51.404;5.474;2023-10-31T08:29:31;14.20;85.20
45785;DHT22;31489;51.404;5.474;2023-10-31T08:31:57;14.20;85.20
45785;DHT22;31489;51.404;5.474;2023-10-31T08:34:22;14.10;85.10
45785;DHT22;31489;51.404;5.474;2023-10-31T08:36:48;14.20;85.20
45785;DHT22;31489;51.404;5.474;2023-10-31T08:39:14;14.20;85.50
45785;DHT22;31489;51.404;5.474;2023-10-31T08:41:53;14.20;85.50
45785;DHT22;31489;51.404;5.474;2023-10-31T08:44:19;14.20;85.20
45785;DHT22;31489;51.404;5.474;2023-10-31T08:46:44;14.30;85.40
45785;DHT22;31489;51.404;5.474;2023-10-31T08:49:10;14.30;85.20
45785;DHT22;31489;51.404;5.474;2023-10-31T08:51:36;14.30;85.00
45785;DHT22;31489;51.404;5.474;2023-10-31T08:54:01;14.40;85.00
45785;DHT22;31489;51.404;5.474;2023-10-31T08:56:27;14.40;85.00
45785;DHT22;31489;51.404;5.474;2023-10-31T08:58:53;14.40;85.00
45785;DHT22;31489;51.404;5.474;2023-10-31T09:01:19;14.40;85.00
45785;DHT22;31489;51.404;5.474;2023-10-31T09:03:45;14.50;84.90
45785;DHT22;31489;51.404;5.474;2023-10-31T09:06:11;14.50;84.90
45785;DHT22;31489;51.404;5.474;2023-10-31T09:08:36;14.50;84.60
45785;DHT22;31489;51.404;5.474;2023-10-31T09:11:04;14.50;84.80
45785;DHT22;31489;51.404;5.474;2023-10-31T09:13:30;14.50;85.00
45785;DHT22;31489;51.404;5.474;2023-10-31T09:16:00;14.50;84.90
45785;DHT22;31489;51.404;5.474;2023-10-31T09:18:26;14.60;84.70
45785;DHT22;31489;51.404;5.474;2023-10-31T09:20:52;14.60;85.20
45785;DHT22;31489;51.404;5.474;2023-10-31T09:23:18;14.60;85.50
45785;DHT22;31489;51.404;5.474;2023-10-31T09:25:44;14.70;85.20
45785;DHT22;31489;51.404;5.474;2023-10-31T09:28:10;14.70;85.00
45785;DHT22;31489;51.404;5.474;2023-10-31T09:30:36;14.80;85.00
45785;DHT22;31489;51.404;5.474;2023-10-31T09:33:01;14.90;85.40
45785;DHT22;31489;51.404;5.474;2023-10-31T09:35:27;14.90;84.70
45785;DHT22;31489;51.404;5.474;2023-10-31T09:37:54;15.00;84.80
45785;DHT22;31489;51.404;5.474;2023-10-31T09:40:20;15.00;84.50
45785;DHT22;31489;51.404;5.474;2023-10-31T09:42:46;15.10;84.10
45785;DHT22;31489;51.404;5.474;2023-10-31T09:45:12;15.10;83.90
45785;DHT22;31489;51.404;5.474;2023-10-31T09:47:39;15.10;83.70
45785;DHT22;31489;51.404;5.474;2023-10-31T09:50:05;15.20;83.40
45785;DHT22;31489;51.404;5.474;2023-10-31T09:52:35;15.20;83.10
45785;DHT22;31489;51.404;5.474;2023-10-31T09:55:02;15.10;82.80
45785;DHT22;31489;51.404;5.474;2023-10-31T09:57:28;15.10;82.80
45785;DHT22;31489;51.404;5.474;2023-10-31T09:59:56;15.10;82.90
45785;DHT22;31489;51.404;5.474;2023-10-31T10:02:22;15.10;83.00
45785;DHT22;31489;51.404;5.474;2023-10-31T10:04:48;15.10;84.40
45785;DHT22;31489;51.404;5.474;2023-10-31T10:07:18;15.30;84.90
45785;DHT22;31489;51.404;5.474;2023-10-31T10:09:45;15.40;84.10
45785;DHT22;31489;51.404;5.474;2023-10-31T10:12:12;15.50;83.60
45785;DHT22;31489;51.404;5.474;2023-10-31T10:14:41;15.60;83.00
45785;DHT22;31489;51.404;5.474;2023-10-31T10:17:27;15.70;83.40
45785;DHT22;31489;51.404;5.474;2023-10-31T10:20:08;15.80;82.40
45785;DHT22;31489;51.404;5.474;2023-10-31T10:22:42;15.90;82.20
45785;DHT22;31489;51.404;5.474;2023-10-31T10:25:14;15.90;81.40
45785;DHT22;31489;51.404;5.474;2023-10-31T10:27:44;16.00;81.20
45785;DHT22;31489;51.404;5.474;2023-10-31T10:30:12;15.90;81.00
45785;DHT22;31489;51.404;5.474;2023-10-31T10:32:38;15.90;81.10
45785;DHT22;31489;51.404;5.474;2023-10-31T10:35:04;15.80;81.20
45785;DHT22;31489;51.404;5.474;2023-10-31T10:37:30;15.80;81.20
45785;DHT22;31489;51.404;5.474;2023-10-31T10:39:57;15.70;81.70
45785;DHT22;31489;51.404;5.474;2023-10-31T10:42:33;15.70;81.20
45785;DHT22;31489;51.404;5.474;2023-10-31T10:45:04;15.60;80.90
45785;DHT22;31489;51.404;5.474;2023-10-31T10:47:31;15.60;81.50
45785;DHT22;31489;51.404;5.474;2023-10-31T10:50:01;15.60;81.50
45785;DHT22;31489;51.404;5.474;2023-10-31T10:52:49;15.60;81.70
45785;DHT22;31489;51.404;5.474;2023-10-31T10:55:21;15.50;81.70
45785;DHT22;31489;51.404;5.474;2023-10-31T11:01:03;15.50;81.50
45785;DHT22;31489;51.404;5.474;2023-10-31T11:03:30;15.50;81.80
45785;DHT22;31489;51.404;5.474;2023-10-31T11:05:56;15.50;81.90
45785;DHT22;31489;51.404;5.474;2023-10-31T11:08:23;15.50;82.30
45785;DHT22;31489;51.404;5.474;2023-10-31T11:10:51;15.60;82.40
45785;DHT22;31489;51.404;5.474;2023-10-31T11:13:17;15.60;82.70
45785;DHT22;31489;51.404;5.474;2023-10-31T11:15:43;15.70;82.90
45785;DHT22;31489;51.404;5.474;2023-10-31T11:18:10;15.80;83.00
45785;DHT22;31489;51.404;5.474;2023-10-31T11:20:36;16.00;83.40
45785;DHT22;31489;51.404;5.474;2023-10-31T11:23:02;16.20;82.80
45785;DHT22;31489;51.404;5.474;2023-10-31T11:25:32;16.30;82.20
45785;DHT22;31489;51.404;5.474;2023-10-31T11:28:11;16.40;81.40
45785;DHT22;31489;51.404;5.474;2023-10-31T11:30:38;16.50;80.20
45785;DHT22;31489;51.404;5.474;2023-10-31T11:33:11;16.50;80.30
45785;DHT22;31489;51.404;5.474;2023-10-31T11:35:39;16.60;80.20
45785;DHT22;31489;51.404;5.474;2023-10-31T11:38:07;16.50;80.40
45785;DHT22;31489;51.404;5.474;2023-10-31T11:40:34;16.60;80.70
45785;DHT22;31489;51.404;5.474;2023-10-31T11:43:04;16.60;80.30
45785;DHT22;31489;51.404;5.474;2023-10-31T11:45:35;16.70;80.00
45785;DHT22;31489;51.404;5.474;2023-10-31T11:48:03;16.70;79.80
45785;DHT22;31489;51.404;5.474;2023-10-31T11:50:31;16.80;80.00
45785;DHT22;31489;51.404;5.474;2023-10-31T11:53:10;16.80;79.80
45785;DHT22;31489;51.404;5.474;2023-10-31T11:55:41;16.90;79.40
45785;DHT22;31489;51.404;5.474;2023-10-31T11:58:34;17.00;80.60
45785;DHT22;31489;51.404;5.474;2023-10-31T12:01:05;17.20;79.60
45785;DHT22;31489;51.404;5.474;2023-10-31T12:03:41;17.40;78.80
45785;DHT22;31489;51.404;5.474;2023-10-31T12:06:08;17.50;77.30
45785;DHT22;31489;51.404;5.474;2023-10-31T12:08:39;17.60;77.70
45785;DHT22;31489;51.404;5.474;2023-10-31T12:11:13;17.70;77.90
45785;DHT22;31489;51.404;5.474;2023-10-31T12:13:40;17.80;77.60
45785;DHT22;31489;51.404;5.474;2023-10-31T12:16:08;18.00;77.90
45785;DHT22;31489;51.404;5.474;2023-10-31T12:18:35;18.20;77.50
45785;DHT22;31489;51.404;5.474;2023-10-31T12:21:01;18.40;77.60
45785;DHT22;31489;51.404;5.474;2023-10-31T12:23:27;18.60;77.30
45785;DHT22;31489;51.404;5.474;2023-10-31T12:25:53;18.80;76.30
45785;DHT22;31489;51.404;5.474;2023-10-31T12:28:24;18.90;75.30
45785;DHT22;31489;51.404;5.474;2023-10-31T12:30:51;18.90;74.00
45785;DHT22;31489;51.404;5.474;2023-10-31T12:33:20;18.90;73.50
45785;DHT22;31489;51.404;5.474;2023-10-31T12:35:47;18.80;73.40
45785;DHT22;31489;51.404;5.474;2023-10-31T12:38:14;18.60;73.40
45785;DHT22;31489;51.404;5.474;2023-10-31T12:40:41;18.60;73.90
45785;DHT22;31489;51.404;5.474;2023-10-31T12:43:08;18.60;75.20
45785;DHT22;31489;51.404;5.474;2023-10-31T12:45:35;18.70;76.20
45785;DHT22;31489;51.404;5.474;2023-10-31T12:48:08;18.80;75.50
45785;DHT22;31489;51.404;5.474;2023-10-31T12:50:36;19.00;74.60
45785;DHT22;31489;51.404;5.474;2023-10-31T12:53:04;19.10;74.00
45785;DHT22;31489;51.404;5.474;2023-10-31T12:55:30;19.00;73.30
45785;DHT22;31489;51.404;5.474;2023-10-31T12:57:59;19.00;73.10
45785;DHT22;31489;51.404;5.474;2023-10-31T13:00:33;19.00;73.30
45785;DHT22;31489;51.404;5.474;2023-10-31T13:03:01;18.80;71.80
45785;DHT22;31489;51.404;5.474;2023-10-31T13:05:27;18.70;71.80
45785;DHT22;31489;51.404;5.474;2023-10-31T13:07:55;18.60;71.60
45785;DHT22;31489;51.404;5.474;2023-10-31T13:10:23;18.50;71.50
45785;DHT22;31489;51.404;5.474;2023-10-31T13:12:49;18.30;71.90
45785;DHT22;31489;51.404;5.474;2023-10-31T13:15:17;18.20;72.50
45785;DHT22;31489;51.404;5.474;2023-10-31T13:17:44;18.20;73.30
45785;DHT22;31489;51.404;5.474;2023-10-31T13:20:12;18.20;73.10
45785;DHT22;31489;51.404;5.474;2023-10-31T13:22:38;18.30;73.10
45785;DHT22;31489;51.404;5.474;2023-10-31T13:25:06;18.30;72.90
45785;DHT22;31489;51.404;5.474;2023-10-31T13:27:45;18.40;72.30
45785;DHT22;31489;51.404;5.474;2023-10-31T13:30:17;18.30;71.60
45785;DHT22;31489;51.404;5.474;2023-10-31T13:32:43;18.30;71.80
45785;DHT22;31489;51.404;5.474;2023-10-31T13:35:09;18.20;71.90
45785;DHT22;31489;51.404;5.474;2023-10-31T13:37:36;18.00;72.00
45785;DHT22;31489;51.404;5.474;2023-10-31T13:40:05;18.00;72.10
45785;DHT22;31489;51.404;5.474;2023-10-31T13:42:34;17.90;71.60
45785;DHT22;31489;51.404;5.474;2023-10-31T13:44:59;17.80;72.10
45785;DHT22;31489;51.404;5.474;2023-10-31T13:47:25;17.70;72.30
45785;DHT22;31489;51.404;5.474;2023-10-31T13:49:51;17.60;72.60
45785;DHT22;31489;51.404;5.474;2023-10-31T13:52:17;17.50;72.50
45785;DHT22;31489;51.404;5.474;2023-10-31T13:54:42;17.50;72.40
45785;DHT22;31489;51.404;5.474;2023-10-31T13:57:09;17.40;72.40
45785;DHT22;31489;51.404;5.474;2023-10-31T13:59:34;17.40;72.60
45785;DHT22;31489;51.404;5.474;2023-10-31T14:02:00;17.30;72.60
45785;DHT22;31489;51.404;5.474;2023-10-31T14:04:26;17.30;72.90
45785;DHT22;31489;51.404;5.474;2023-10-31T14:06:52;17.20;72.70
45785;DHT22;31489;51.404;5.474;2023-10-31T14:09:17;17.20;73.10
45785;DHT22;31489;51.404;5.474;2023-10-31T14:11:43;17.20;73.00
45785;DHT22;31489;51.404;5.474;2023-10-31T14:14:09;17.10;73.00
45785;DHT22;31489;51.404;5.474;2023-10-31T14:16:40;17.10;73.10
45785;DHT22;31489;51.404;5.474;2023-10-31T14:19:06;17.00;73.00
45785;DHT22;31489;51.404;5.474;2023-10-31T14:21:33;17.00;74.00
45785;DHT22;31489;51.404;5.474;2023-10-31T14:23:59;17.00;73.80
45785;DHT22;31489;51.404;5.474;2023-10-31T14:26:26;16.90;74.60
45785;DHT22;31489;51.404;5.474;2023-10-31T14:28:52;16.90;75.70
45785;DHT22;31489;51.404;5.474;2023-10-31T14:31:18;16.70;75.50
45785;DHT22;31489;51.404;5.474;2023-10-31T14:33:46;16.60;76.00
45785;DHT22;31489;51.404;5.474;2023-10-31T14:36:11;16.50;76.70
45785;DHT22;31489;51.404;5.474;2023-10-31T14:38:39;16.40;77.20
45785;DHT22;31489;51.404;5.474;2023-10-31T14:41:05;16.30;77.50
45785;DHT22;31489;51.404;5.474;2023-10-31T14:43:31;16.20;78.10
45785;DHT22;31489;51.404;5.474;2023-10-31T14:45:57;16.10;79.40
45785;DHT22;31489;51.404;5.474;2023-10-31T14:48:23;16.00;79.70
45785;DHT22;31489;51.404;5.474;2023-10-31T14:50:49;15.90;79.80
45785;DHT22;31489;51.404;5.474;2023-10-31T14:53:15;15.90;79.90
45785;DHT22;31489;51.404;5.474;2023-10-31T14:55:41;15.80;80.70
45785;DHT22;31489;51.404;5.474;2023-10-31T14:58:07;15.80;80.80
45785;DHT22;31489;51.404;5.474;2023-10-31T15:00:35;15.80;81.20
45785;DHT22;31489;51.404;5.474;2023-10-31T15:03:01;15.80;81.90
45785;DHT22;31489;51.404;5.474;2023-10-31T15:05:27;15.70;81.70
45785;DHT22;31489;51.404;5.474;2023-10-31T15:07:52;15.70;81.70
45785;DHT22;31489;51.404;5.474;2023-10-31T15:10:19;15.70;81.80
45785;DHT22;31489;51.404;5.474;2023-10-31T15:12:48;15.70;82.10
45785;DHT22;31489;51.404;5.474;2023-10-31T15:15:16;15.70;82.10
45785;DHT22;31489;51.404;5.474;2023-10-31T15:17:43;15.70;82.00
45785;DHT22;31489;51.404;5.474;2023-10-31T15:20:09;15.70;82.10
45785;DHT22;31489;51.404;5.474;2023-10-31T15:22:39;15.70;82.40
45785;DHT22;31489;51.404;5.474;2023-10-31T15:25:05;15.80;82.70
45785;DHT22;31489;51.404;5.474;2023-10-31T15:27:34;15.80;82.70
45785;DHT22;31489;51.404;5.474;2023-10-31T15:30:00;15.70;82.40